Flight Track Log - Related Links

Times and Time Zones

All times are in EDT time to prevent confusion due to time zone crossing. See the THY1077 flight status page for this flight to view local times or setup timezone preferences in your user account.

Time Position Orientation Groundspeed Altitude Reporting Facility
EDT Latitude Longitude Course Direction KTS MPH feet Rate Location/Type
Thu 12:30:00 PM 41.0224 28.2904 277° West  Level Estimated
Thu 12:31:00 PM 41.0334 28.1576 276° West  Level Estimated
Thu 12:32:00 PM 41.0442 28.0248 276° West  Level Estimated
Thu 12:33:00 PM 41.0549 27.8919 276° West  Level Estimated
Thu 12:34:00 PM 41.0654 27.7590 276° West  Level Estimated
Thu 12:35:00 PM 41.0758 27.6260 276° West  Level Estimated
Thu 12:36:00 PM 41.0860 27.4930 276° West  Level Estimated
Thu 12:37:00 PM 41.0961 27.3599 276° West  Level Estimated
Thu 12:38:00 PM 41.1060 27.2268 276° West  Level Estimated
Thu 12:39:00 PM 41.1158 27.0937 276° West  Level Estimated
Thu 12:40:00 PM 41.1254 26.9605 276° West  Level Estimated
Thu 12:41:00 PM 41.1348 26.8273 275° West  Level Estimated
Thu 12:42:00 PM 41.1441 26.6941 275° West  Level Estimated
Thu 12:43:00 PM 41.1533 26.5608 275° West  Level Estimated
Thu 12:44:00 PM 41.1623 26.4275 275° West  Level Estimated
Thu 12:45:00 PM 41.1711 26.2941 275° West  Level Estimated
Thu 12:46:00 PM 41.1798 26.1607 275° West  Level Estimated
Thu 12:47:00 PM 41.1884 26.0273 275° West  Level Estimated
Thu 12:48:00 PM 41.1968 25.8939 275° West  Level Estimated
Thu 12:49:00 PM 41.2050 25.7604 275° West  Level Estimated
Thu 12:50:00 PM 41.2131 25.6268 275° West  Level Estimated
Thu 12:51:00 PM 41.2210 25.4933 275° West  Level Estimated
Thu 12:52:00 PM 41.2287 25.3597 274° West  Level Estimated
Thu 12:53:00 PM 41.2364 25.2261 274° West  Level Estimated
Thu 12:54:00 PM 41.2438 25.0924 274° West  Level Estimated
Thu 12:55:00 PM 41.2511 24.9587 274° West  Level Estimated
Thu 12:56:00 PM 41.2583 24.8250 274° West  Level Estimated
Thu 12:57:00 PM 41.2653 24.6913 274° West  Level Estimated
Thu 12:58:00 PM 41.2721 24.5575 274° West  Level Estimated
Thu 12:59:00 PM 41.2788 24.4237 274° West  Level Estimated
Thu 01:00:00 PM 41.2853 24.2899 274° West  Level Estimated
Thu 01:01:00 PM 41.2917 24.1560 274° West  Level Estimated
Thu 01:02:00 PM 41.2979 24.0221 274° West  Level Estimated
Thu 01:03:00 PM 41.3040 23.8882 273° West  Level Estimated
Thu 01:04:00 PM 41.3099 23.7543 273° West  Level Estimated
Thu 01:05:00 PM 41.3156 23.6204 273° West  Level Estimated
Thu 01:06:00 PM 41.3212 23.4864 273° West  Level Estimated
Thu 01:07:00 PM 41.3266 23.3524 273° West  Level Estimated
Thu 01:08:00 PM 41.3319 23.2184 273° West  Level Estimated
Thu 01:09:00 PM 41.3371 23.0843 273° West  Level Estimated
Thu 01:10:00 PM 41.3420 22.9503 273° West  Level Estimated
Thu 01:11:00 PM 41.3469 22.8162 273° West  Level Estimated
Thu 01:12:00 PM 41.3515 22.6821 273° West  Level Estimated
Thu 01:13:00 PM 41.3560 22.5480 273° West  Level Estimated
Thu 01:14:00 PM 41.3604 22.4138 273° West  Level Estimated
Thu 01:15:00 PM 41.3646 22.2797 272° West  Level Estimated
Thu 01:16:00 PM 41.3686 22.1455 272° West  Level Estimated
Thu 01:17:00 PM 41.3725 22.0113 272° West  Level Estimated
Thu 01:18:00 PM 41.3762 21.8771 272° West  Level Estimated
Thu 01:19:00 PM 41.3798 21.7429 272° West  Level Estimated
Thu 01:20:00 PM 41.3832 21.6086 272° West  Level Estimated
Thu 01:21:00 PM 41.3865 21.4744 272° West  Level Estimated
Thu 01:22:00 PM 41.3896 21.3401 272° West  Level Estimated
Thu 01:23:00 PM 41.3926 21.2058 272° West  Level Estimated
Thu 01:24:00 PM 41.3953 21.0716 272° West  Level Estimated
Thu 01:25:00 PM 41.3980 20.9373 272° West  Level Estimated
Thu 01:26:00 PM 41.4005 20.8029 271° West  Level Estimated
Thu 01:27:00 PM 41.4028 20.6686 271° West  Level Estimated
Thu 01:28:00 PM 41.4049 20.5343 271° West  Level Estimated
Thu 01:29:00 PM 41.4070 20.4000 271° West  Level Estimated
Thu 01:30:00 PM 41.4088 20.2656 271° West  Level Estimated
Thu 01:31:00 PM 41.4105 20.1313 271° West  Level Estimated
Thu 01:32:00 PM 41.4121 19.9969 271° West  Level Estimated
Thu 01:33:00 PM 41.4134 19.8625 271° West  Level Estimated
Thu 01:34:00 PM 41.4147 19.7281 271° West  Level Estimated
Thu 01:35:00 PM 41.4147 19.7206 271° West  Level Estimated
Thu 01:36:00 PM 41.4147 19.7206 21° North  Level Estimated
Thu 01:37:00 PM 41.4147 19.7206 21° North  Level Estimated
Thu 01:38:00 PM 41.4147 19.7206 21° North  Level Estimated
Thu 01:39:00 PM 41.4147 19.7206 21° North  Level Estimated
Thu 01:40:00 PM 41.4147 19.7206 21° North  Level Estimated
Thu 01:41:00 PM 41.4147 19.7206 21° North  Level Estimated
Thu 01:42:00 PM 41.4147 19.7206 21° North  Level Estimated
Thu 01:43:00 PM 41.4147 19.7206 21° North  Level Estimated
Thu 01:44:00 PM 41.4147 19.7206 21° North  Level Estimated

Login

Don't have an account? Register now (free) for customized features, flight alerts, and more!